createdAt,value
2023-06-29T00:01:56.476Z,102077.16
2023-06-29T00:04:26.983Z,102082.63
2023-06-29T00:06:55.762Z,102078.50
2023-06-29T00:09:23.654Z,102086.78
2023-06-29T00:11:50.784Z,102083.06
2023-06-29T00:14:17.607Z,102080.16
2023-06-29T00:16:44.712Z,102079.81
2023-06-29T00:19:13.067Z,102082.09
2023-06-29T00:21:40.291Z,102078.28
2023-06-29T00:24:07.619Z,102081.13
2023-06-29T00:26:34.473Z,102083.31
2023-06-29T00:29:01.330Z,102083.81
2023-06-29T00:31:28.310Z,102087.84
2023-06-29T00:33:55.289Z,102079.88
2023-06-29T00:36:22.339Z,102077.94
2023-06-29T00:38:49.450Z,102085.78
2023-06-29T00:41:16.338Z,102084.88
2023-06-29T00:43:44.321Z,102083.91
2023-06-29T00:46:14.177Z,102080.44
2023-06-29T00:48:41.077Z,102079.81
2023-06-29T00:51:08.309Z,102082.88
2023-06-29T00:53:35.251Z,102078.97
2023-06-29T00:56:03.192Z,102084.78
2023-06-29T00:58:30.405Z,102083.81
2023-06-29T01:00:57.388Z,102082.66
2023-06-29T01:03:24.933Z,102060.16
2023-06-29T01:05:57.579Z,102076.94
2023-06-29T01:08:32.612Z,102075.63
2023-06-29T01:11:02.707Z,102076.59
2023-06-29T01:13:31.092Z,102041.56
2023-06-29T01:15:59.684Z,102075.69
2023-06-29T01:18:29.001Z,102075.34
2023-06-29T01:20:56.564Z,102073.44
2023-06-29T01:23:28.260Z,102079.22
2023-06-29T01:25:56.526Z,102084.94
2023-06-29T01:28:23.364Z,102095.16
2023-06-29T01:30:51.259Z,102100.88
2023-06-29T01:33:24.883Z,102098.03
2023-06-29T01:36:01.610Z,102093.25
2023-06-29T01:38:33.746Z,102097.31
2023-06-29T01:41:02.530Z,102090.94
2023-06-29T01:43:30.591Z,102090.69
2023-06-29T01:45:58.539Z,102083.69
2023-06-29T01:48:26.771Z,102096.47
2023-06-29T01:50:53.849Z,102085.94
2023-06-29T01:53:21.129Z,102092.78
2023-06-29T01:55:47.890Z,102094.41
2023-06-29T01:58:14.703Z,102092.34
2023-06-29T02:00:41.510Z,102088.75
2023-06-29T02:03:08.333Z,102082.50
2023-06-29T02:05:35.271Z,102082.44
2023-06-29T02:08:02.184Z,102086.75
2023-06-29T02:10:29.036Z,102084.94
2023-06-29T02:12:55.836Z,102083.00
2023-06-29T02:15:22.768Z,102083.06
2023-06-29T02:17:49.585Z,102082.22
2023-06-29T02:20:18.644Z,102086.47
2023-06-29T02:22:45.582Z,102089.88
2023-06-29T02:25:12.970Z,102080.31
2023-06-29T02:27:39.717Z,102080.13
2023-06-29T02:30:07.270Z,102080.13
2023-06-29T02:32:34.138Z,102081.78
2023-06-29T02:35:00.916Z,102082.63
2023-06-29T02:37:27.721Z,102084.34
2023-06-29T02:39:54.475Z,102076.28
2023-06-29T02:42:23.353Z,102075.56
2023-06-29T02:44:50.143Z,102088.50
2023-06-29T02:47:16.952Z,102086.59
2023-06-29T02:49:43.715Z,102084.09
2023-06-29T02:52:10.512Z,102076.28
2023-06-29T02:54:37.275Z,102082.63
2023-06-29T02:57:04.240Z,102084.69
2023-06-29T02:59:31.230Z,102080.50
2023-06-29T03:01:58.053Z,102078.78
2023-06-29T03:04:24.820Z,102079.66
2023-06-29T03:06:51.604Z,102080.56
2023-06-29T03:09:18.430Z,102077.16
2023-06-29T03:11:45.276Z,102073.75
2023-06-29T03:14:12.107Z,102078.09
2023-06-29T03:16:40.334Z,102079.88
2023-06-29T03:19:07.190Z,102075.44
2023-06-29T03:21:34.000Z,102071.13
2023-06-29T03:24:00.885Z,102075.38
2023-06-29T03:26:27.669Z,102075.31
2023-06-29T03:28:54.453Z,102071.84
2023-06-29T03:31:21.324Z,102077.03
2023-06-29T03:33:48.176Z,102074.41
2023-06-29T03:36:15.036Z,102070.81
2023-06-29T03:38:41.794Z,102072.41
2023-06-29T03:41:08.705Z,102069.59
2023-06-29T03:43:35.460Z,102079.13
2023-06-29T03:46:02.452Z,102082.84
2023-06-29T03:48:29.304Z,102078.50
2023-06-29T03:50:59.443Z,102080.94
2023-06-29T03:53:26.215Z,102074.97
2023-06-29T03:55:53.014Z,102077.34
2023-06-29T03:58:19.939Z,102078.28
2023-06-29T04:00:46.770Z,102077.50
2023-06-29T04:03:13.783Z,102079.34
2023-06-29T04:05:40.758Z,102076.09
2023-06-29T04:08:08.241Z,102066.56
2023-06-29T04:10:35.568Z,102070.44
2023-06-29T04:13:02.642Z,102066.28
2023-06-29T04:15:29.503Z,102064.31
2023-06-29T04:17:56.368Z,102063.19
2023-06-29T04:20:23.189Z,102067.44
2023-06-29T04:22:49.999Z,102071.34
2023-06-29T04:25:16.807Z,102062.03
2023-06-29T04:27:44.265Z,102066.50
2023-06-29T04:30:12.404Z,102070.84
2023-06-29T04:32:40.133Z,102074.25
2023-06-29T04:35:10.590Z,102070.84
2023-06-29T04:37:41.958Z,102065.44
2023-06-29T04:40:13.403Z,102070.13
2023-06-29T04:42:49.553Z,102067.75
2023-06-29T04:45:19.512Z,102073.56
2023-06-29T04:47:53.297Z,102075.06
2023-06-29T04:50:26.538Z,102065.91
2023-06-29T04:52:55.096Z,102075.53
2023-06-29T04:55:23.048Z,102070.78
2023-06-29T04:57:49.863Z,102069.28
2023-06-29T05:00:17.084Z,102071.38
2023-06-29T05:02:44.079Z,102063.66
2023-06-29T05:05:11.058Z,102067.81
2023-06-29T05:07:39.224Z,102069.00
2023-06-29T05:10:06.935Z,102069.28
2023-06-29T05:12:34.171Z,102072.63
2023-06-29T05:15:01.006Z,102076.50
2023-06-29T05:17:27.758Z,102075.19
2023-06-29T05:19:54.685Z,102074.00
2023-06-29T05:22:21.517Z,102074.63
2023-06-29T05:24:48.290Z,102084.09
2023-06-29T05:27:15.050Z,102089.09
2023-06-29T05:29:41.912Z,102093.53
2023-06-29T05:32:09.025Z,102082.84
2023-06-29T05:34:36.859Z,102086.09
2023-06-29T05:37:04.010Z,102090.03
2023-06-29T05:39:30.847Z,102082.66
2023-06-29T05:41:57.643Z,102080.63
2023-06-29T05:44:24.477Z,102082.84
2023-06-29T05:46:51.326Z,102091.28
2023-06-29T05:49:18.139Z,102097.00
2023-06-29T05:51:44.985Z,102097.59
2023-06-29T05:54:11.854Z,102091.69
2023-06-29T05:56:38.762Z,102094.78
2023-06-29T05:59:05.619Z,102089.91
2023-06-29T06:01:32.659Z,102099.44
2023-06-29T06:03:59.756Z,102089.72
2023-06-29T06:06:26.659Z,102093.25
2023-06-29T06:08:53.448Z,102090.88
2023-06-29T06:11:20.189Z,102096.38
2023-06-29T06:13:47.083Z,102093.19
2023-06-29T06:16:13.944Z,102092.16
2023-06-29T06:18:40.731Z,102096.06
2023-06-29T06:21:07.738Z,102088.06
2023-06-29T06:23:34.718Z,102086.00
2023-06-29T06:26:02.313Z,102091.59
2023-06-29T06:28:29.321Z,102090.94
2023-06-29T06:30:56.269Z,102086.78
2023-06-29T06:33:23.191Z,102093.97
2023-06-29T06:35:50.445Z,102096.13
2023-06-29T06:38:17.517Z,102096.59
2023-06-29T06:40:44.546Z,102099.91
2023-06-29T06:43:11.597Z,102102.19
2023-06-29T06:45:38.395Z,102104.56
2023-06-29T06:48:05.555Z,102107.88
2023-06-29T06:50:32.493Z,102085.47
2023-06-29T06:52:59.262Z,102100.56
2023-06-29T06:55:27.260Z,102101.03
2023-06-29T06:57:54.183Z,102106.94
2023-06-29T07:00:21.469Z,102110.94
2023-06-29T07:02:48.317Z,102105.41
2023-06-29T07:05:16.259Z,102101.97
2023-06-29T07:07:43.187Z,102102.41
2023-06-29T07:10:10.806Z,102101.41
2023-06-29T07:12:38.112Z,102095.16
2023-06-29T07:15:05.840Z,102100.31
2023-06-29T07:17:33.487Z,102097.03
2023-06-29T07:24:59.892Z,102095.31
2023-06-29T07:27:26.798Z,102094.25
2023-06-29T07:29:53.610Z,102088.72
2023-06-29T07:32:20.381Z,102087.22
2023-06-29T07:34:47.228Z,102087.00
2023-06-29T07:37:14.110Z,102089.38
2023-06-29T07:39:40.890Z,102091.31
2023-06-29T07:42:07.755Z,102082.41
2023-06-29T07:44:34.599Z,102086.75
2023-06-29T07:47:01.616Z,102086.75
2023-06-29T07:49:28.455Z,102085.59
2023-06-29T07:51:55.246Z,102083.66
2023-06-29T07:54:22.015Z,102089.78
2023-06-29T07:59:18.554Z,102090.34
2023-06-29T08:01:49.724Z,102093.63
2023-06-29T08:04:17.722Z,102090.63
2023-06-29T08:07:07.682Z,102083.09
2023-06-29T08:09:36.503Z,102086.03
2023-06-29T08:12:03.628Z,102088.19
2023-06-29T08:14:30.423Z,102086.38
2023-06-29T08:16:57.314Z,102084.81
2023-06-29T08:19:24.294Z,102079.78
2023-06-29T08:21:56.660Z,102085.13
2023-06-29T08:24:23.609Z,102090.94
2023-06-29T08:26:50.454Z,102086.72
2023-06-29T08:29:17.333Z,102078.38
2023-06-29T08:31:44.465Z,102091.69
2023-06-29T08:34:12.172Z,102082.13
2023-06-29T08:36:39.057Z,102083.84
2023-06-29T08:39:05.949Z,102080.47
2023-06-29T08:41:32.779Z,102064.16
2023-06-29T08:43:59.928Z,102078.31
2023-06-29T08:46:29.004Z,102086.28
2023-06-29T08:48:56.511Z,102082.72
2023-06-29T08:51:23.544Z,102069.19
2023-06-29T08:53:52.098Z,102073.78
2023-06-29T08:56:20.400Z,102081.28
2023-06-29T08:58:47.829Z,102071.63
2023-06-29T09:01:14.671Z,102070.50
2023-06-29T09:03:42.067Z,102067.34
2023-06-29T09:06:10.489Z,102075.56
2023-06-29T09:08:39.134Z,102073.53
2023-06-29T09:11:06.140Z,102069.44
2023-06-29T09:13:34.726Z,102056.56
2023-06-29T09:16:03.035Z,102065.63
2023-06-29T09:18:30.840Z,102068.75
2023-06-29T09:20:58.111Z,102052.97
2023-06-29T09:23:30.149Z,102057.19
2023-06-29T09:25:58.106Z,102063.13
2023-06-29T09:28:25.576Z,102059.16
2023-06-29T09:30:52.633Z,102066.78
2023-06-29T09:33:20.529Z,102060.41
2023-06-29T09:35:53.286Z,102055.16
2023-06-29T09:38:21.713Z,102041.63
2023-06-29T09:40:53.741Z,102041.06
2023-06-29T09:43:23.354Z,102053.63
2023-06-29T09:45:53.020Z,102048.91
2023-06-29T09:50:56.118Z,102044.22
2023-06-29T09:53:34.002Z,102040.00
2023-06-29T09:56:03.347Z,102035.78
2023-06-29T09:58:31.418Z,102030.13
2023-06-29T10:01:01.254Z,102026.09
2023-06-29T10:03:29.230Z,102029.22
2023-06-29T10:06:04.668Z,102022.22
2023-06-29T10:08:34.262Z,102032.75
2023-06-29T10:11:03.941Z,102034.00
2023-06-29T10:13:38.683Z,102029.06
2023-06-29T10:16:10.224Z,102025.50
2023-06-29T10:18:45.612Z,102027.69
2023-06-29T10:21:12.638Z,102030.19
2023-06-29T10:23:42.570Z,102029.88
2023-06-29T10:26:10.747Z,102033.44
2023-06-29T10:28:38.296Z,102029.81
2023-06-29T10:31:05.229Z,102031.03
2023-06-29T10:33:32.336Z,102023.09
2023-06-29T10:36:01.281Z,102021.13
2023-06-29T10:38:33.065Z,102020.91
2023-06-29T10:40:59.958Z,102019.09
2023-06-29T10:43:29.696Z,102018.50
2023-06-29T10:45:56.468Z,102015.22
2023-06-29T10:48:42.813Z,102018.88
2023-06-29T10:51:12.950Z,102018.25
2023-06-29T10:53:40.380Z,102017.28
2023-06-29T10:56:33.397Z,101997.19
2023-06-29T10:59:00.798Z,102004.13
2023-06-29T11:01:28.057Z,102002.13
2023-06-29T11:03:55.284Z,102008.72
2023-06-29T11:06:33.509Z,102008.56
2023-06-29T11:09:11.737Z,102005.09
2023-06-29T11:11:39.575Z,101998.06
2023-06-29T11:14:06.487Z,101992.63
2023-06-29T11:16:34.838Z,101964.66
2023-06-29T11:19:03.427Z,101984.06
2023-06-29T11:21:30.444Z,101993.34
2023-06-29T11:23:57.304Z,101987.16
2023-06-29T11:26:24.709Z,101989.06
2023-06-29T11:28:52.823Z,101989.25
2023-06-29T11:31:21.255Z,101992.28
2023-06-29T11:33:49.487Z,101980.34
2023-06-29T11:36:16.825Z,101975.44
2023-06-29T11:38:43.827Z,101977.00
2023-06-29T11:41:10.993Z,101981.25
2023-06-29T11:43:37.906Z,101978.50
2023-06-29T11:46:04.951Z,101977.97
2023-06-29T11:48:31.816Z,101967.97
2023-06-29T11:51:01.418Z,101975.56
2023-06-29T11:53:30.293Z,101985.50
2023-06-29T11:55:57.826Z,101982.09
2023-06-29T11:58:32.940Z,101989.56
2023-06-29T12:00:59.793Z,101991.88
2023-06-29T12:03:27.935Z,101993.91
2023-06-29T12:05:59.231Z,102001.38
2023-06-29T12:08:26.066Z,101993.03
2023-06-29T12:10:52.946Z,101989.38
2023-06-29T12:13:20.804Z,101990.47
2023-06-29T12:18:17.657Z,101989.00
2023-06-29T12:20:47.976Z,101976.72
2023-06-29T12:23:15.931Z,101964.84
2023-06-29T12:25:48.588Z,101974.50
2023-06-29T12:28:16.177Z,101988.38
2023-06-29T12:30:44.289Z,101969.13
2023-06-29T12:33:13.591Z,101977.06
2023-06-29T12:35:40.802Z,101984.72
2023-06-29T12:38:07.870Z,101992.88
2023-06-29T12:40:35.327Z,101983.56
2023-06-29T12:43:02.442Z,101970.22
2023-06-29T12:45:29.379Z,101961.53
2023-06-29T12:47:56.460Z,101967.47
2023-06-29T12:50:23.371Z,101960.94
2023-06-29T12:52:50.201Z,101972.25
2023-06-29T12:55:17.158Z,101966.22
2023-06-29T12:57:45.482Z,101962.91
2023-06-29T13:00:13.866Z,101968.34
2023-06-29T13:02:41.110Z,101957.91
2023-06-29T13:05:08.142Z,101963.28
2023-06-29T13:07:37.092Z,101962.75
2023-06-29T13:10:05.060Z,101970.78
2023-06-29T13:12:32.488Z,101965.66
2023-06-29T13:15:00.273Z,101966.09
2023-06-29T13:17:27.485Z,101963.56
2023-06-29T13:19:54.354Z,101969.88
2023-06-29T13:22:24.261Z,101968.47
2023-06-29T13:24:51.132Z,101962.84
2023-06-29T13:27:18.192Z,101958.59
2023-06-29T13:29:45.031Z,101955.81
2023-06-29T13:32:11.897Z,101948.78
2023-06-29T13:34:38.709Z,101950.19
2023-06-29T13:37:05.864Z,101957.78
2023-06-29T13:39:32.742Z,101953.25
2023-06-29T13:41:59.753Z,101937.50
2023-06-29T13:44:26.537Z,101928.28
2023-06-29T13:46:53.374Z,101922.81
2023-06-29T13:49:21.610Z,101926.34
2023-06-29T13:51:49.662Z,101936.75
2023-06-29T13:54:17.078Z,101933.25
2023-06-29T13:56:44.521Z,101921.34
2023-06-29T13:59:11.503Z,101917.28
2023-06-29T14:01:40.838Z,101923.31
2023-06-29T14:04:11.117Z,101917.94
2023-06-29T14:06:44.328Z,101919.78
2023-06-29T14:09:13.037Z,101908.22
2023-06-29T14:11:40.792Z,101912.81
2023-06-29T14:14:07.734Z,101912.94
2023-06-29T14:16:35.805Z,101911.69
2023-06-29T14:19:03.750Z,101912.09
2023-06-29T14:21:31.252Z,101912.88
2023-06-29T14:23:58.131Z,101896.69
2023-06-29T14:26:24.960Z,101896.53
2023-06-29T14:28:52.122Z,101887.88
2023-06-29T14:31:19.627Z,101885.75
2023-06-29T14:33:46.681Z,101883.72
2023-06-29T14:36:14.019Z,101877.19
2023-06-29T14:38:40.973Z,101868.38
2023-06-29T14:41:07.847Z,101882.22
2023-06-29T14:43:34.715Z,101877.94
2023-06-29T14:46:01.628Z,101869.13
2023-06-29T14:48:28.560Z,101866.78
2023-06-29T14:50:56.641Z,101865.41
2023-06-29T14:53:24.516Z,101856.72
2023-06-29T14:56:04.183Z,101860.28
2023-06-29T14:58:31.499Z,101862.94
2023-06-29T15:00:58.647Z,101856.91
2023-06-29T15:03:25.884Z,101849.66
2023-06-29T15:05:52.866Z,101856.84
2023-06-29T15:08:19.701Z,101850.06
2023-06-29T15:10:46.525Z,101833.72
2023-06-29T15:13:13.591Z,101840.66
2023-06-29T15:15:40.356Z,101831.25
2023-06-29T15:18:07.225Z,101828.13
2023-06-29T15:20:35.610Z,101827.47
2023-06-29T15:23:02.679Z,101827.50
2023-06-29T15:25:29.618Z,101819.28
2023-06-29T15:27:59.121Z,101825.94
2023-06-29T15:30:26.090Z,101813.66
2023-06-29T15:32:52.919Z,101821.44
2023-06-29T15:35:19.865Z,101810.13
2023-06-29T15:37:46.689Z,101806.84
2023-06-29T15:40:14.225Z,101806.94
2023-06-29T15:42:41.400Z,101803.03
2023-06-29T15:45:08.575Z,101809.63
2023-06-29T15:47:37.008Z,101800.97
2023-06-29T15:50:06.070Z,101791.69
2023-06-29T15:52:33.465Z,101792.19
2023-06-29T15:55:00.590Z,101789.09
2023-06-29T15:57:27.381Z,101782.66
2023-06-29T15:59:54.280Z,101780.75
2023-06-29T16:02:21.284Z,101774.75
2023-06-29T16:04:48.195Z,101774.25
2023-06-29T16:07:15.076Z,101764.22
2023-06-29T16:09:41.956Z,101769.22
2023-06-29T16:12:09.712Z,101763.13
2023-06-29T16:14:36.717Z,101756.22
2023-06-29T16:17:03.905Z,101759.88
2023-06-29T16:19:30.798Z,101749.63
2023-06-29T16:21:57.772Z,101749.16
2023-06-29T16:24:24.592Z,101745.47
2023-06-29T16:26:51.993Z,101745.66
2023-06-29T16:29:19.060Z,101761.53
2023-06-29T16:31:49.635Z,101749.03
2023-06-29T16:34:16.532Z,101743.72
2023-06-29T16:36:43.632Z,101739.03
2023-06-29T16:39:10.620Z,101743.78
2023-06-29T16:41:38.086Z,101735.50
2023-06-29T16:44:05.018Z,101728.94
2023-06-29T16:46:31.947Z,101713.69
2023-06-29T16:49:00.102Z,101734.94
2023-06-29T16:51:29.358Z,101722.56
2023-06-29T16:53:57.130Z,101731.28
2023-06-29T16:56:24.062Z,101720.97
2023-06-29T16:58:51.024Z,101717.81
2023-06-29T17:01:18.580Z,101713.00
2023-06-29T17:03:45.614Z,101712.41
2023-06-29T17:06:12.949Z,101711.63
2023-06-29T17:08:41.241Z,101710.50
2023-06-29T17:11:08.648Z,101715.25
2023-06-29T17:13:35.677Z,101701.25
2023-06-29T17:16:03.390Z,101702.91
2023-06-29T17:18:30.401Z,101699.13
2023-06-29T17:20:57.188Z,101698.16
2023-06-29T17:23:24.049Z,101698.59
2023-06-29T17:25:51.777Z,101710.38
2023-06-29T17:28:19.970Z,101701.53
2023-06-29T17:30:47.105Z,101701.09
2023-06-29T17:33:15.101Z,101700.81
2023-06-29T17:35:42.405Z,101693.94
2023-06-29T17:38:09.899Z,101689.44
2023-06-29T17:40:36.758Z,101687.88
2023-06-29T17:43:03.695Z,101689.16
2023-06-29T17:45:30.620Z,101684.91
2023-06-29T17:47:57.476Z,101671.31
2023-06-29T17:50:24.411Z,101684.66
2023-06-29T17:52:51.760Z,101670.47
2023-06-29T17:55:19.480Z,101667.81
2023-06-29T17:57:46.306Z,101654.31
2023-06-29T18:00:16.438Z,101662.41
2023-06-29T18:02:43.665Z,101664.78
2023-06-29T18:05:11.182Z,101653.09
2023-06-29T18:07:38.704Z,101648.00
2023-06-29T18:10:08.245Z,101660.88
2023-06-29T18:12:36.606Z,101650.03
2023-06-29T18:15:04.473Z,101658.03
2023-06-29T18:17:31.419Z,101648.22
2023-06-29T18:19:59.107Z,101648.47
2023-06-29T18:22:26.296Z,101636.91
2023-06-29T18:24:53.349Z,101633.84
2023-06-29T18:27:20.237Z,101628.50
2023-06-29T18:29:47.005Z,101637.22
2023-06-29T18:32:13.912Z,101624.31
2023-06-29T18:34:40.685Z,101627.53
2023-06-29T18:37:07.696Z,101625.97
2023-06-29T18:39:34.526Z,101626.25
2023-06-29T18:42:01.343Z,101624.25
2023-06-29T18:44:28.140Z,101612.44
2023-06-29T18:47:11.344Z,101609.22
2023-06-29T18:49:50.802Z,101610.44
2023-06-29T18:52:20.056Z,101605.09
2023-06-29T18:54:47.518Z,101602.69
2023-06-29T18:57:14.392Z,101599.69
2023-06-29T18:59:43.176Z,101592.63
2023-06-29T19:02:10.762Z,101596.06
2023-06-29T19:04:37.580Z,101592.66
2023-06-29T19:07:04.808Z,101587.72
2023-06-29T19:09:31.879Z,101588.72
2023-06-29T19:12:00.715Z,101584.19
2023-06-29T19:14:27.773Z,101589.41
2023-06-29T19:16:57.743Z,101587.88
2023-06-29T19:19:25.378Z,101586.00
2023-06-29T19:21:53.083Z,101589.03
2023-06-29T19:24:20.354Z,101583.78
2023-06-29T19:26:47.389Z,101565.53
2023-06-29T19:29:14.875Z,101576.88
2023-06-29T19:31:43.743Z,101573.38
2023-06-29T19:34:12.113Z,101571.34
2023-06-29T19:36:39.636Z,101574.47
2023-06-29T19:39:06.666Z,101584.03
2023-06-29T19:41:33.691Z,101574.97
2023-06-29T19:44:01.186Z,101573.91
2023-06-29T19:46:28.247Z,101576.91
2023-06-29T19:48:55.313Z,101581.38
2023-06-29T19:51:22.349Z,101588.38
2023-06-29T19:53:49.185Z,101582.81
2023-06-29T19:56:16.125Z,101580.28
2023-06-29T19:58:43.030Z,101583.63
2023-06-29T20:01:09.901Z,101580.63
2023-06-29T20:03:36.795Z,101575.72
2023-06-29T20:06:04.195Z,101569.06
2023-06-29T20:08:31.089Z,101565.31
2023-06-29T20:10:57.882Z,101570.84
2023-06-29T20:13:24.729Z,101562.38
2023-06-29T20:15:51.796Z,101563.69
2023-06-29T20:18:18.671Z,101557.63
2023-06-29T20:20:45.499Z,101556.06
2023-06-29T20:23:12.442Z,101557.50
2023-06-29T20:25:39.348Z,101552.41
2023-06-29T20:28:06.225Z,101541.19
2023-06-29T20:30:33.332Z,101545.16
2023-06-29T20:33:00.310Z,101539.84
2023-06-29T20:35:27.374Z,101537.31
2023-06-29T20:37:54.826Z,101539.25
2023-06-29T20:40:21.848Z,101532.56
2023-06-29T20:42:48.706Z,101528.25
2023-06-29T20:45:15.611Z,101524.00
2023-06-29T20:47:42.483Z,101517.97
2023-06-29T20:50:09.611Z,101518.81
2023-06-29T20:52:36.453Z,101517.25
2023-06-29T20:55:03.548Z,101518.66
2023-06-29T20:57:30.322Z,101519.84
2023-06-29T20:59:57.193Z,101518.78
2023-06-29T21:02:24.231Z,101513.25
2023-06-29T21:04:51.292Z,101524.94
2023-06-29T21:07:19.124Z,101519.88
2023-06-29T21:09:46.166Z,101511.81
2023-06-29T21:12:13.892Z,101514.69
2023-06-29T21:14:41.170Z,101514.16
2023-06-29T21:17:08.580Z,101515.09
2023-06-29T21:19:35.549Z,101511.41
2023-06-29T21:22:02.646Z,101505.28
2023-06-29T21:24:29.967Z,101509.69
2023-06-29T21:26:56.929Z,101512.47
2023-06-29T21:29:34.481Z,101505.28
2023-06-29T21:32:11.707Z,101504.41
2023-06-29T21:34:39.520Z,101497.44
2023-06-29T21:37:07.008Z,101494.91
2023-06-29T21:39:33.949Z,101485.47
2023-06-29T21:42:00.994Z,101483.69
2023-06-29T21:44:27.836Z,101490.03
2023-06-29T21:46:54.768Z,101484.22
2023-06-29T21:49:21.924Z,101478.19
2023-06-29T21:51:49.053Z,101475.88
2023-06-29T21:54:15.835Z,101468.28
2023-06-29T21:56:42.743Z,101457.41
2023-06-29T21:59:09.554Z,101469.59
2023-06-29T22:01:36.446Z,101462.06
2023-06-29T22:04:03.446Z,101464.63
2023-06-29T22:06:30.608Z,101466.03
2023-06-29T22:08:57.576Z,101445.31
2023-06-29T22:11:28.184Z,101455.25
2023-06-29T22:13:55.434Z,101447.53
2023-06-29T22:16:25.112Z,101440.75
2023-06-29T22:18:52.311Z,101447.66
2023-06-29T22:21:22.407Z,101438.34
2023-06-29T22:23:53.499Z,101432.34
2023-06-29T22:26:21.849Z,101431.25
2023-06-29T22:28:48.994Z,101434.22
2023-06-29T22:31:18.581Z,101433.28
2023-06-29T22:33:46.492Z,101439.75
2023-06-29T22:36:15.019Z,101433.59
2023-06-29T22:38:42.500Z,101429.16
2023-06-29T22:41:09.971Z,101419.75
2023-06-29T22:43:37.182Z,101424.28
2023-06-29T22:46:04.163Z,101412.00
2023-06-29T22:48:31.028Z,101412.25
2023-06-29T22:50:58.108Z,101412.44
2023-06-29T22:53:25.039Z,101408.06
2023-06-29T22:55:51.892Z,101408.06
2023-06-29T22:58:25.718Z,101403.00
2023-06-29T23:00:56.127Z,101393.81
2023-06-29T23:03:23.767Z,101388.22
2023-06-29T23:05:50.892Z,101383.97
2023-06-29T23:08:17.915Z,101371.50
2023-06-29T23:10:47.722Z,101376.19
2023-06-29T23:13:17.856Z,101375.41
2023-06-29T23:15:46.237Z,101366.53
2023-06-29T23:18:14.028Z,101362.09
2023-06-29T23:20:45.724Z,101363.16
2023-06-29T23:23:16.597Z,101357.16
2023-06-29T23:25:43.787Z,101342.78
2023-06-29T23:28:11.110Z,101347.63
2023-06-29T23:30:38.441Z,101342.34
2023-06-29T23:33:05.406Z,101336.31
2023-06-29T23:35:32.370Z,101332.50
2023-06-29T23:37:59.179Z,101336.94
2023-06-29T23:40:27.218Z,101329.69
2023-06-29T23:42:54.700Z,101332.22
2023-06-29T23:45:22.926Z,101316.22
2023-06-29T23:47:50.406Z,101324.28
2023-06-29T23:50:19.483Z,101317.09
2023-06-29T23:52:46.581Z,101318.47
2023-06-29T23:55:13.752Z,101314.13
2023-06-29T23:57:42.174Z,101314.34
